sensor_id;sensor_type;location;lat;lon;timestamp;P1;durP1;ratioP1;P2;durP2;ratioP2
22606;SDS011;11470;20.968;105.834;2022-09-09T00:02:20;9.73;;;7.43;;
22606;SDS011;11470;20.968;105.834;2022-09-09T00:23:56;8.27;;;5.95;;
22606;SDS011;11470;20.968;105.834;2022-09-09T00:34:37;14.60;;;8.82;;
22606;SDS011;11470;20.968;105.834;2022-09-09T00:39:48;12.95;;;9.70;;
22606;SDS011;11470;20.968;105.834;2022-09-09T00:50:38;18.55;;;11.63;;
22606;SDS011;11470;20.968;105.834;2022-09-09T00:56:00;11.38;;;7.32;;
22606;SDS011;11470;20.968;105.834;2022-09-09T01:01:18;13.55;;;9.55;;
22606;SDS011;11470;20.968;105.834;2022-09-09T01:11:50;20.50;;;11.10;;
22606;SDS011;11470;20.968;105.834;2022-09-09T01:17:17;10.52;;;7.78;;
22606;SDS011;11470;20.968;105.834;2022-09-09T01:28:01;12.57;;;8.40;;
22606;SDS011;11470;20.968;105.834;2022-09-09T01:33:13;10.73;;;7.28;;
22606;SDS011;11470;20.968;105.834;2022-09-09T01:38:21;17.48;;;10.70;;
22606;SDS011;11470;20.968;105.834;2022-09-09T01:43:28;20.55;;;11.57;;
22606;SDS011;11470;20.968;105.834;2022-09-09T01:48:35;30.67;;;15.68;;
22606;SDS011;11470;20.968;105.834;2022-09-09T01:53:43;22.75;;;12.75;;
22606;SDS011;11470;20.968;105.834;2022-09-09T02:04:00;24.38;;;12.38;;
22606;SDS011;11470;20.968;105.834;2022-09-09T02:09:13;17.00;;;9.18;;
22606;SDS011;11470;20.968;105.834;2022-09-09T02:14:25;13.75;;;10.13;;
22606;SDS011;11470;20.968;105.834;2022-09-09T02:19:41;26.48;;;12.95;;
22606;SDS011;11470;20.968;105.834;2022-09-09T02:24:58;15.15;;;9.07;;
22606;SDS011;11470;20.968;105.834;2022-09-09T02:30:05;18.63;;;9.98;;
22606;SDS011;11470;20.968;105.834;2022-09-09T02:35:20;21.33;;;11.52;;
22606;SDS011;11470;20.968;105.834;2022-09-09T02:40:28;26.63;;;12.10;;
22606;SDS011;11470;20.968;105.834;2022-09-09T02:45:42;20.95;;;13.55;;
22606;SDS011;11470;20.968;105.834;2022-09-09T02:51:42;20.77;;;12.13;;
22606;SDS011;11470;20.968;105.834;2022-09-09T02:56:42;23.00;;;13.88;;
22606;SDS011;11470;20.968;105.834;2022-09-09T03:01:57;24.73;;;11.90;;
22606;SDS011;11470;20.968;105.834;2022-09-09T03:07:03;19.25;;;12.32;;
22606;SDS011;11470;20.968;105.834;2022-09-09T03:12:10;21.48;;;11.90;;
22606;SDS011;11470;20.968;105.834;2022-09-09T03:17:15;19.23;;;11.80;;
22606;SDS011;11470;20.968;105.834;2022-09-09T03:22:26;22.15;;;14.38;;
22606;SDS011;11470;20.968;105.834;2022-09-09T03:27:34;27.10;;;14.73;;
22606;SDS011;11470;20.968;105.834;2022-09-09T03:32:45;22.42;;;13.30;;
22606;SDS011;11470;20.968;105.834;2022-09-09T03:37:52;21.50;;;12.93;;
22606;SDS011;11470;20.968;105.834;2022-09-09T03:43:00;24.00;;;13.75;;
22606;SDS011;11470;20.968;105.834;2022-09-09T03:48:08;22.02;;;14.02;;
22606;SDS011;11470;20.968;105.834;2022-09-09T03:53:16;22.63;;;14.43;;
22606;SDS011;11470;20.968;105.834;2022-09-09T03:58:26;26.50;;;15.25;;
22606;SDS011;11470;20.968;105.834;2022-09-09T04:03:40;22.45;;;13.98;;
22606;SDS011;11470;20.968;105.834;2022-09-09T04:08:46;24.73;;;14.30;;
22606;SDS011;11470;20.968;105.834;2022-09-09T04:14:05;24.45;;;15.35;;
22606;SDS011;11470;20.968;105.834;2022-09-09T04:19:13;32.88;;;18.65;;
22606;SDS011;11470;20.968;105.834;2022-09-09T04:24:18;24.15;;;15.95;;
22606;SDS011;11470;20.968;105.834;2022-09-09T04:29:26;29.38;;;16.30;;
22606;SDS011;11470;20.968;105.834;2022-09-09T04:34:31;32.15;;;19.13;;
22606;SDS011;11470;20.968;105.834;2022-09-09T04:39:37;26.30;;;16.55;;
22606;SDS011;11470;20.968;105.834;2022-09-09T04:44:42;24.50;;;15.68;;
22606;SDS011;11470;20.968;105.834;2022-09-09T04:49:49;22.38;;;15.68;;
22606;SDS011;11470;20.968;105.834;2022-09-09T04:54:54;28.85;;;17.38;;
22606;SDS011;11470;20.968;105.834;2022-09-09T04:59:59;22.55;;;13.60;;
22606;SDS011;11470;20.968;105.834;2022-09-09T05:05:26;36.97;;;23.77;;
22606;SDS011;11470;20.968;105.834;2022-09-09T05:10:50;29.38;;;17.80;;
22606;SDS011;11470;20.968;105.834;2022-09-09T05:15:56;35.28;;;21.23;;
22606;SDS011;11470;20.968;105.834;2022-09-09T05:21:02;26.88;;;14.88;;
22606;SDS011;11470;20.968;105.834;2022-09-09T05:26:15;24.17;;;15.77;;
22606;SDS011;11470;20.968;105.834;2022-09-09T05:31:23;37.22;;;23.33;;
22606;SDS011;11470;20.968;105.834;2022-09-09T05:36:35;35.03;;;22.38;;
22606;SDS011;11470;20.968;105.834;2022-09-09T05:46:47;43.53;;;27.25;;
22606;SDS011;11470;20.968;105.834;2022-09-09T05:51:54;39.22;;;25.85;;
22606;SDS011;11470;20.968;105.834;2022-09-09T05:57:00;38.67;;;25.88;;
22606;SDS011;11470;20.968;105.834;2022-09-09T06:02:05;36.50;;;23.40;;
22606;SDS011;11470;20.968;105.834;2022-09-09T06:07:12;36.20;;;23.80;;
22606;SDS011;11470;20.968;105.834;2022-09-09T06:12:18;28.10;;;22.13;;
22606;SDS011;11470;20.968;105.834;2022-09-09T06:17:25;35.25;;;24.13;;
22606;SDS011;11470;20.968;105.834;2022-09-09T06:22:31;29.55;;;21.48;;
22606;SDS011;11470;20.968;105.834;2022-09-09T06:27:37;32.80;;;22.42;;
22606;SDS011;11470;20.968;105.834;2022-09-09T06:32:42;31.90;;;23.33;;
22606;SDS011;11470;20.968;105.834;2022-09-09T06:37:48;36.33;;;22.92;;
22606;SDS011;11470;20.968;105.834;2022-09-09T06:42:58;36.35;;;25.38;;
22606;SDS011;11470;20.968;105.834;2022-09-09T06:48:14;35.45;;;26.08;;
22606;SDS011;11470;20.968;105.834;2022-09-09T06:58:24;36.47;;;23.25;;
22606;SDS011;11470;20.968;105.834;2022-09-09T07:03:31;39.15;;;27.83;;
22606;SDS011;11470;20.968;105.834;2022-09-09T07:08:41;50.95;;;30.67;;
22606;SDS011;11470;20.968;105.834;2022-09-09T07:14:00;40.33;;;29.52;;
22606;SDS011;11470;20.968;105.834;2022-09-09T07:19:09;42.00;;;29.65;;
22606;SDS011;11470;20.968;105.834;2022-09-09T07:24:17;37.97;;;26.35;;
22606;SDS011;11470;20.968;105.834;2022-09-09T07:29:23;37.40;;;24.55;;
22606;SDS011;11470;20.968;105.834;2022-09-09T07:34:28;42.45;;;28.05;;
22606;SDS011;11470;20.968;105.834;2022-09-09T07:39:34;39.28;;;28.65;;
22606;SDS011;11470;20.968;105.834;2022-09-09T07:44:39;41.08;;;28.98;;
22606;SDS011;11470;20.968;105.834;2022-09-09T07:49:52;36.53;;;26.98;;
22606;SDS011;11470;20.968;105.834;2022-09-09T07:55:04;46.58;;;30.15;;
22606;SDS011;11470;20.968;105.834;2022-09-09T08:00:11;39.25;;;28.00;;
22606;SDS011;11470;20.968;105.834;2022-09-09T08:05:24;44.72;;;34.70;;
22606;SDS011;11470;20.968;105.834;2022-09-09T08:10:30;48.20;;;32.60;;
22606;SDS011;11470;20.968;105.834;2022-09-09T08:20:42;47.08;;;32.08;;
22606;SDS011;11470;20.968;105.834;2022-09-09T08:25:49;44.00;;;29.50;;
22606;SDS011;11470;20.968;105.834;2022-09-09T08:30:54;36.00;;;28.42;;
22606;SDS011;11470;20.968;105.834;2022-09-09T08:36:05;43.50;;;31.02;;
22606;SDS011;11470;20.968;105.834;2022-09-09T08:52:47;26.55;;;19.70;;
22606;SDS011;11470;20.968;105.834;2022-09-09T08:58:02;27.17;;;21.00;;
22606;SDS011;11470;20.968;105.834;2022-09-09T09:04:03;27.05;;;19.98;;
22606;SDS011;11470;20.968;105.834;2022-09-09T09:14:25;38.05;;;30.58;;
22606;SDS011;11470;20.968;105.834;2022-09-09T09:19:41;43.92;;;33.22;;
22606;SDS011;11470;20.968;105.834;2022-09-09T09:30:00;38.92;;;29.33;;
22606;SDS011;11470;20.968;105.834;2022-09-09T09:35:29;34.30;;;26.98;;
22606;SDS011;11470;20.968;105.834;2022-09-09T09:40:47;40.22;;;28.90;;
22606;SDS011;11470;20.968;105.834;2022-09-09T09:45:55;41.45;;;31.83;;
22606;SDS011;11470;20.968;105.834;2022-09-09T09:51:21;37.33;;;29.08;;
22606;SDS011;11470;20.968;105.834;2022-09-09T09:56:29;45.28;;;35.75;;
22606;SDS011;11470;20.968;105.834;2022-09-09T10:01:37;44.80;;;31.83;;
22606;SDS011;11470;20.968;105.834;2022-09-09T10:06:45;39.70;;;30.13;;
22606;SDS011;11470;20.968;105.834;2022-09-09T10:11:56;38.88;;;27.40;;
22606;SDS011;11470;20.968;105.834;2022-09-09T10:17:17;29.23;;;22.15;;
22606;SDS011;11470;20.968;105.834;2022-09-09T10:22:32;31.27;;;22.77;;
22606;SDS011;11470;20.968;105.834;2022-09-09T10:38:40;30.15;;;22.35;;
22606;SDS011;11470;20.968;105.834;2022-09-09T10:43:56;45.33;;;31.33;;
22606;SDS011;11470;20.968;105.834;2022-09-09T10:54:56;44.87;;;32.40;;
22606;SDS011;11470;20.968;105.834;2022-09-09T11:01:10;38.92;;;30.67;;
22606;SDS011;11470;20.968;105.834;2022-09-09T11:05:56;32.15;;;26.25;;
22606;SDS011;11470;20.968;105.834;2022-09-09T11:11:10;38.92;;;30.42;;
22606;SDS011;11470;20.968;105.834;2022-09-09T11:21:58;40.63;;;29.60;;
22606;SDS011;11470;20.968;105.834;2022-09-09T11:27:47;32.13;;;23.25;;
22606;SDS011;11470;20.968;105.834;2022-09-09T11:43:41;39.92;;;30.65;;
22606;SDS011;11470;20.968;105.834;2022-09-09T11:48:58;43.15;;;33.83;;
22606;SDS011;11470;20.968;105.834;2022-09-09T11:54:44;40.40;;;32.40;;
22606;SDS011;11470;20.968;105.834;2022-09-09T11:59:50;43.65;;;32.78;;
22606;SDS011;11470;20.968;105.834;2022-09-09T12:10:22;28.15;;;22.45;;
22606;SDS011;11470;20.968;105.834;2022-09-09T12:15:32;28.05;;;22.25;;
22606;SDS011;11470;20.968;105.834;2022-09-09T12:20:38;32.00;;;22.38;;
22606;SDS011;11470;20.968;105.834;2022-09-09T12:27:07;34.92;;;25.55;;
22606;SDS011;11470;20.968;105.834;2022-09-09T12:37:18;38.05;;;30.25;;
22606;SDS011;11470;20.968;105.834;2022-09-09T12:42:26;42.50;;;27.65;;
22606;SDS011;11470;20.968;105.834;2022-09-09T12:47:44;37.75;;;28.27;;
22606;SDS011;11470;20.968;105.834;2022-09-09T12:53:11;53.58;;;37.17;;
22606;SDS011;11470;20.968;105.834;2022-09-09T12:58:30;44.22;;;34.95;;
22606;SDS011;11470;20.968;105.834;2022-09-09T13:03:41;42.67;;;32.30;;
22606;SDS011;11470;20.968;105.834;2022-09-09T13:08:51;42.67;;;33.42;;
22606;SDS011;11470;20.968;105.834;2022-09-09T13:13:57;45.03;;;32.58;;
22606;SDS011;11470;20.968;105.834;2022-09-09T13:19:16;45.17;;;32.00;;
22606;SDS011;11470;20.968;105.834;2022-09-09T13:24:31;44.88;;;29.30;;
22606;SDS011;11470;20.968;105.834;2022-09-09T13:29:39;40.85;;;30.58;;
22606;SDS011;11470;20.968;105.834;2022-09-09T13:40:02;42.55;;;34.53;;
22606;SDS011;11470;20.968;105.834;2022-09-09T13:45:16;42.72;;;33.08;;
22606;SDS011;11470;20.968;105.834;2022-09-09T13:50:25;36.47;;;30.17;;
22606;SDS011;11470;20.968;105.834;2022-09-09T13:55:35;44.38;;;30.98;;
22606;SDS011;11470;20.968;105.834;2022-09-09T14:00:44;41.72;;;32.03;;
22606;SDS011;11470;20.968;105.834;2022-09-09T14:05:51;40.47;;;30.17;;
22606;SDS011;11470;20.968;105.834;2022-09-09T14:11:00;42.45;;;32.38;;
22606;SDS011;11470;20.968;105.834;2022-09-09T14:16:07;43.30;;;32.90;;
22606;SDS011;11470;20.968;105.834;2022-09-09T14:21:17;41.47;;;31.35;;
22606;SDS011;11470;20.968;105.834;2022-09-09T14:26:22;47.00;;;32.83;;
22606;SDS011;11470;20.968;105.834;2022-09-09T14:31:28;43.88;;;33.10;;
22606;SDS011;11470;20.968;105.834;2022-09-09T14:36:34;40.67;;;32.33;;
22606;SDS011;11470;20.968;105.834;2022-09-09T14:41:39;48.60;;;34.92;;
22606;SDS011;11470;20.968;105.834;2022-09-09T14:46:47;44.42;;;33.83;;
22606;SDS011;11470;20.968;105.834;2022-09-09T14:51:54;51.35;;;37.30;;
22606;SDS011;11470;20.968;105.834;2022-09-09T14:57:00;51.33;;;35.38;;
22606;SDS011;11470;20.968;105.834;2022-09-09T15:07:18;44.08;;;33.38;;
22606;SDS011;11470;20.968;105.834;2022-09-09T15:12:23;46.15;;;34.85;;
22606;SDS011;11470;20.968;105.834;2022-09-09T15:17:30;44.70;;;34.15;;
22606;SDS011;11470;20.968;105.834;2022-09-09T15:22:36;44.00;;;30.42;;
22606;SDS011;11470;20.968;105.834;2022-09-09T15:27:42;46.63;;;34.10;;
22606;SDS011;11470;20.968;105.834;2022-09-09T15:32:57;33.67;;;26.30;;
22606;SDS011;11470;20.968;105.834;2022-09-09T15:38:07;42.17;;;29.65;;
22606;SDS011;11470;20.968;105.834;2022-09-09T15:43:12;32.35;;;23.27;;
22606;SDS011;11470;20.968;105.834;2022-09-09T15:53:22;39.25;;;28.60;;
22606;SDS011;11470;20.968;105.834;2022-09-09T16:03:36;41.25;;;26.67;;
22606;SDS011;11470;20.968;105.834;2022-09-09T16:08:48;33.85;;;26.48;;
22606;SDS011;11470;20.968;105.834;2022-09-09T16:13:55;45.53;;;29.08;;
22606;SDS011;11470;20.968;105.834;2022-09-09T16:19:06;43.00;;;30.65;;
22606;SDS011;11470;20.968;105.834;2022-09-09T16:24:14;45.28;;;30.45;;
22606;SDS011;11470;20.968;105.834;2022-09-09T16:29:25;45.38;;;30.58;;
22606;SDS011;11470;20.968;105.834;2022-09-09T16:34:31;39.63;;;29.48;;
22606;SDS011;11470;20.968;105.834;2022-09-09T16:39:39;34.70;;;27.08;;
22606;SDS011;11470;20.968;105.834;2022-09-09T16:49:59;39.17;;;27.75;;
22606;SDS011;11470;20.968;105.834;2022-09-09T16:55:12;43.17;;;30.70;;
22606;SDS011;11470;20.968;105.834;2022-09-09T17:00:30;40.10;;;27.98;;
22606;SDS011;11470;20.968;105.834;2022-09-09T17:05:49;43.30;;;29.77;;
22606;SDS011;11470;20.968;105.834;2022-09-09T17:11:13;36.20;;;27.00;;
22606;SDS011;11470;20.968;105.834;2022-09-09T17:16:23;31.25;;;23.67;;
22606;SDS011;11470;20.968;105.834;2022-09-09T17:21:32;30.42;;;23.38;;
22606;SDS011;11470;20.968;105.834;2022-09-09T17:26:51;28.90;;;21.13;;
22606;SDS011;11470;20.968;105.834;2022-09-09T17:31:58;27.58;;;21.55;;
22606;SDS011;11470;20.968;105.834;2022-09-09T17:37:07;33.13;;;25.60;;
22606;SDS011;11470;20.968;105.834;2022-09-09T17:47:18;31.80;;;24.08;;
22606;SDS011;11470;20.968;105.834;2022-09-09T17:52:25;32.65;;;25.25;;
22606;SDS011;11470;20.968;105.834;2022-09-09T17:57:33;39.55;;;29.45;;
22606;SDS011;11470;20.968;105.834;2022-09-09T18:02:39;40.85;;;28.02;;
22606;SDS011;11470;20.968;105.834;2022-09-09T18:07:46;43.35;;;27.52;;
22606;SDS011;11470;20.968;105.834;2022-09-09T18:12:51;43.28;;;30.77;;
22606;SDS011;11470;20.968;105.834;2022-09-09T18:17:58;32.22;;;23.35;;
22606;SDS011;11470;20.968;105.834;2022-09-09T18:23:06;35.58;;;25.27;;
22606;SDS011;11470;20.968;105.834;2022-09-09T18:28:12;31.80;;;25.77;;
22606;SDS011;11470;20.968;105.834;2022-09-09T18:33:17;41.15;;;29.65;;
22606;SDS011;11470;20.968;105.834;2022-09-09T18:38:22;41.40;;;28.58;;
22606;SDS011;11470;20.968;105.834;2022-09-09T18:48:33;40.90;;;30.90;;
22606;SDS011;11470;20.968;105.834;2022-09-09T18:53:40;43.10;;;28.60;;
22606;SDS011;11470;20.968;105.834;2022-09-09T18:58:50;34.35;;;25.80;;
22606;SDS011;11470;20.968;105.834;2022-09-09T19:04:01;41.00;;;30.45;;
22606;SDS011;11470;20.968;105.834;2022-09-09T19:09:10;32.28;;;24.65;;
22606;SDS011;11470;20.968;105.834;2022-09-09T19:14:17;34.05;;;24.73;;
22606;SDS011;11470;20.968;105.834;2022-09-09T19:19:24;26.10;;;17.75;;
22606;SDS011;11470;20.968;105.834;2022-09-09T19:24:34;31.60;;;21.95;;
22606;SDS011;11470;20.968;105.834;2022-09-09T19:29:40;27.10;;;19.88;;
22606;SDS011;11470;20.968;105.834;2022-09-09T19:34:47;32.47;;;22.00;;
22606;SDS011;11470;20.968;105.834;2022-09-09T19:39:53;37.38;;;26.65;;
22606;SDS011;11470;20.968;105.834;2022-09-09T19:50:05;41.90;;;26.85;;
22606;SDS011;11470;20.968;105.834;2022-09-09T19:55:11;45.83;;;28.48;;
22606;SDS011;11470;20.968;105.834;2022-09-09T20:00:16;40.63;;;27.93;;
22606;SDS011;11470;20.968;105.834;2022-09-09T20:05:22;45.90;;;28.50;;
22606;SDS011;11470;20.968;105.834;2022-09-09T20:10:27;45.90;;;29.88;;
22606;SDS011;11470;20.968;105.834;2022-09-09T20:15:33;47.90;;;33.42;;
22606;SDS011;11470;20.968;105.834;2022-09-09T20:20:39;48.05;;;31.90;;
22606;SDS011;11470;20.968;105.834;2022-09-09T20:25:46;34.67;;;24.10;;
22606;SDS011;11470;20.968;105.834;2022-09-09T20:30:50;36.80;;;28.23;;
22606;SDS011;11470;20.968;105.834;2022-09-09T20:35:57;52.90;;;33.25;;
22606;SDS011;11470;20.968;105.834;2022-09-09T20:41:08;45.28;;;30.63;;
22606;SDS011;11470;20.968;105.834;2022-09-09T20:46:35;41.40;;;29.80;;
22606;SDS011;11470;20.968;105.834;2022-09-09T20:51:43;41.70;;;28.10;;
22606;SDS011;11470;20.968;105.834;2022-09-09T20:56:50;42.10;;;29.30;;
22606;SDS011;11470;20.968;105.834;2022-09-09T21:01:56;58.47;;;32.10;;
22606;SDS011;11470;20.968;105.834;2022-09-09T21:07:02;41.83;;;30.23;;
22606;SDS011;11470;20.968;105.834;2022-09-09T21:12:10;44.90;;;30.40;;
22606;SDS011;11470;20.968;105.834;2022-09-09T21:17:16;40.13;;;28.77;;
22606;SDS011;11470;20.968;105.834;2022-09-09T21:22:22;40.70;;;27.65;;
22606;SDS011;11470;20.968;105.834;2022-09-09T21:27:27;47.97;;;30.30;;
22606;SDS011;11470;20.968;105.834;2022-09-09T21:32:33;44.37;;;29.47;;
22606;SDS011;11470;20.968;105.834;2022-09-09T21:37:38;44.67;;;30.10;;
22606;SDS011;11470;20.968;105.834;2022-09-09T21:42:43;40.78;;;27.73;;
22606;SDS011;11470;20.968;105.834;2022-09-09T21:47:49;50.78;;;30.50;;
22606;SDS011;11470;20.968;105.834;2022-09-09T21:52:55;55.08;;;30.20;;
22606;SDS011;11470;20.968;105.834;2022-09-09T21:58:01;51.90;;;30.23;;
22606;SDS011;11470;20.968;105.834;2022-09-09T22:03:07;48.25;;;31.15;;
22606;SDS011;11470;20.968;105.834;2022-09-09T22:08:14;43.67;;;29.60;;
22606;SDS011;11470;20.968;105.834;2022-09-09T22:13:20;40.13;;;27.63;;
22606;SDS011;11470;20.968;105.834;2022-09-09T22:18:26;45.67;;;29.90;;
22606;SDS011;11470;20.968;105.834;2022-09-09T22:23:34;44.35;;;29.70;;
22606;SDS011;11470;20.968;105.834;2022-09-09T22:28:40;51.00;;;30.15;;
22606;SDS011;11470;20.968;105.834;2022-09-09T22:33:45;40.93;;;29.57;;
22606;SDS011;11470;20.968;105.834;2022-09-09T22:38:51;39.40;;;28.38;;
22606;SDS011;11470;20.968;105.834;2022-09-09T22:49:03;38.88;;;28.42;;
22606;SDS011;11470;20.968;105.834;2022-09-09T22:54:08;44.28;;;28.13;;
22606;SDS011;11470;20.968;105.834;2022-09-09T22:59:14;38.13;;;29.55;;
22606;SDS011;11470;20.968;105.834;2022-09-09T23:09:25;41.15;;;29.75;;
22606;SDS011;11470;20.968;105.834;2022-09-09T23:14:32;44.13;;;31.77;;
22606;SDS011;11470;20.968;105.834;2022-09-09T23:23:24;44.45;;;30.73;;
22606;SDS011;11470;20.968;105.834;2022-09-09T23:28:31;49.92;;;29.23;;
22606;SDS011;11470;20.968;105.834;2022-09-09T23:33:38;24.58;;;18.10;;
22606;SDS011;11470;20.968;105.834;2022-09-09T23:38:45;25.20;;;14.95;;
22606;SDS011;11470;20.968;105.834;2022-09-09T23:43:51;29.45;;;19.40;;
22606;SDS011;11470;20.968;105.834;2022-09-09T23:48:57;16.48;;;8.68;;
22606;SDS011;11470;20.968;105.834;2022-09-09T23:54:03;25.50;;;19.27;;
22606;SDS011;11470;20.968;105.834;2022-09-09T23:59:10;20.85;;;15.13;;
